sensor_id;sensor_type;location;lat;lon;timestamp;P1;durP1;ratioP1;P2;durP2;ratioP2
4023;SDS011;2026;51.002;13.668;2024-03-08T00:01:43;39.43;;;21.93;;
4023;SDS011;2026;51.002;13.668;2024-03-08T00:06:48;33.73;;;19.07;;
4023;SDS011;2026;51.002;13.668;2024-03-08T00:11:52;34.23;;;20.10;;
4023;SDS011;2026;51.002;13.668;2024-03-08T00:16:56;40.93;;;20.30;;
4023;SDS011;2026;51.002;13.668;2024-03-08T00:22:00;35.80;;;19.63;;
4023;SDS011;2026;51.002;13.668;2024-03-08T00:27:03;36.47;;;19.63;;
4023;SDS011;2026;51.002;13.668;2024-03-08T00:32:09;37.20;;;19.87;;
4023;SDS011;2026;51.002;13.668;2024-03-08T00:37:12;38.17;;;20.13;;
4023;SDS011;2026;51.002;13.668;2024-03-08T00:42:16;41.20;;;20.13;;
4023;SDS011;2026;51.002;13.668;2024-03-08T00:47:21;33.13;;;18.67;;
4023;SDS011;2026;51.002;13.668;2024-03-08T00:52:24;35.07;;;19.40;;
4023;SDS011;2026;51.002;13.668;2024-03-08T00:57:27;37.40;;;20.30;;
4023;SDS011;2026;51.002;13.668;2024-03-08T01:02:31;34.23;;;19.00;;
4023;SDS011;2026;51.002;13.668;2024-03-08T01:07:37;35.97;;;20.20;;
4023;SDS011;2026;51.002;13.668;2024-03-08T01:12:40;32.90;;;18.17;;
4023;SDS011;2026;51.002;13.668;2024-03-08T01:17:45;35.00;;;19.00;;
4023;SDS011;2026;51.002;13.668;2024-03-08T01:22:48;37.30;;;19.43;;
4023;SDS011;2026;51.002;13.668;2024-03-08T01:27:51;35.63;;;20.93;;
4023;SDS011;2026;51.002;13.668;2024-03-08T01:32:57;37.77;;;19.90;;
4023;SDS011;2026;51.002;13.668;2024-03-08T01:38:00;36.90;;;19.93;;
4023;SDS011;2026;51.002;13.668;2024-03-08T01:48:29;39.27;;;20.57;;
4023;SDS011;2026;51.002;13.668;2024-03-08T01:53:33;33.00;;;18.97;;
4023;SDS011;2026;51.002;13.668;2024-03-08T01:58:38;38.50;;;20.20;;
4023;SDS011;2026;51.002;13.668;2024-03-08T02:03:44;38.90;;;20.37;;
4023;SDS011;2026;51.002;13.668;2024-03-08T02:08:48;34.60;;;19.47;;
4023;SDS011;2026;51.002;13.668;2024-03-08T02:13:51;33.50;;;18.50;;
4023;SDS011;2026;51.002;13.668;2024-03-08T02:18:55;35.80;;;18.30;;
4023;SDS011;2026;51.002;13.668;2024-03-08T02:24:00;34.20;;;18.37;;
4023;SDS011;2026;51.002;13.668;2024-03-08T02:29:03;34.17;;;18.77;;
4023;SDS011;2026;51.002;13.668;2024-03-08T02:34:06;36.50;;;20.60;;
4023;SDS011;2026;51.002;13.668;2024-03-08T02:39:12;39.33;;;19.43;;
4023;SDS011;2026;51.002;13.668;2024-03-08T02:44:15;36.20;;;19.30;;
4023;SDS011;2026;51.002;13.668;2024-03-08T02:49:18;33.50;;;18.90;;
4023;SDS011;2026;51.002;13.668;2024-03-08T02:54:22;41.70;;;20.60;;
4023;SDS011;2026;51.002;13.668;2024-03-08T02:59:25;36.93;;;20.20;;
4023;SDS011;2026;51.002;13.668;2024-03-08T03:04:28;37.20;;;18.83;;
4023;SDS011;2026;51.002;13.668;2024-03-08T03:09:32;38.70;;;19.73;;
4023;SDS011;2026;51.002;13.668;2024-03-08T03:14:36;39.23;;;19.67;;
4023;SDS011;2026;51.002;13.668;2024-03-08T03:19:40;38.67;;;20.53;;
4023;SDS011;2026;51.002;13.668;2024-03-08T03:24:45;36.13;;;19.47;;
4023;SDS011;2026;51.002;13.668;2024-03-08T03:29:48;41.10;;;21.23;;
4023;SDS011;2026;51.002;13.668;2024-03-08T03:34:53;38.83;;;19.87;;
4023;SDS011;2026;51.002;13.668;2024-03-08T03:39:57;38.13;;;19.70;;
4023;SDS011;2026;51.002;13.668;2024-03-08T03:45:00;34.40;;;18.33;;
4023;SDS011;2026;51.002;13.668;2024-03-08T03:50:06;37.60;;;19.33;;
4023;SDS011;2026;51.002;13.668;2024-03-08T03:55:12;35.40;;;19.80;;
4023;SDS011;2026;51.002;13.668;2024-03-08T04:00:16;38.67;;;20.40;;
4023;SDS011;2026;51.002;13.668;2024-03-08T04:05:19;39.83;;;20.07;;
4023;SDS011;2026;51.002;13.668;2024-03-08T04:10:23;43.60;;;21.00;;
4023;SDS011;2026;51.002;13.668;2024-03-08T04:15:26;39.63;;;20.43;;
4023;SDS011;2026;51.002;13.668;2024-03-08T04:20:29;42.73;;;21.83;;
4023;SDS011;2026;51.002;13.668;2024-03-08T04:25:34;36.00;;;19.80;;
4023;SDS011;2026;51.002;13.668;2024-03-08T04:30:37;41.93;;;21.00;;
4023;SDS011;2026;51.002;13.668;2024-03-08T04:35:40;36.67;;;19.60;;
4023;SDS011;2026;51.002;13.668;2024-03-08T04:40:45;41.77;;;20.67;;
4023;SDS011;2026;51.002;13.668;2024-03-08T04:45:48;38.90;;;19.60;;
4023;SDS011;2026;51.002;13.668;2024-03-08T04:50:51;39.03;;;20.20;;
4023;SDS011;2026;51.002;13.668;2024-03-08T04:55:55;38.40;;;19.87;;
4023;SDS011;2026;51.002;13.668;2024-03-08T05:00:59;42.83;;;21.40;;
4023;SDS011;2026;51.002;13.668;2024-03-08T05:06:03;40.80;;;20.87;;
4023;SDS011;2026;51.002;13.668;2024-03-08T05:11:07;42.07;;;21.50;;
4023;SDS011;2026;51.002;13.668;2024-03-08T05:16:11;37.93;;;20.37;;
4023;SDS011;2026;51.002;13.668;2024-03-08T05:21:16;39.43;;;21.20;;
4023;SDS011;2026;51.002;13.668;2024-03-08T05:26:23;39.33;;;20.73;;
4023;SDS011;2026;51.002;13.668;2024-03-08T05:31:26;41.07;;;20.77;;
4023;SDS011;2026;51.002;13.668;2024-03-08T05:36:30;39.97;;;20.80;;
4023;SDS011;2026;51.002;13.668;2024-03-08T05:41:35;45.93;;;22.37;;
4023;SDS011;2026;51.002;13.668;2024-03-08T05:46:38;48.40;;;21.70;;
4023;SDS011;2026;51.002;13.668;2024-03-08T05:51:41;42.07;;;20.70;;
4023;SDS011;2026;51.002;13.668;2024-03-08T05:56:45;36.50;;;20.13;;
4023;SDS011;2026;51.002;13.668;2024-03-08T06:01:50;46.37;;;23.40;;
4023;SDS011;2026;51.002;13.668;2024-03-08T06:06:53;53.10;;;24.80;;
4023;SDS011;2026;51.002;13.668;2024-03-08T06:11:59;41.57;;;21.13;;
4023;SDS011;2026;51.002;13.668;2024-03-08T06:17:03;44.47;;;22.17;;
4023;SDS011;2026;51.002;13.668;2024-03-08T06:22:08;43.53;;;21.00;;
4023;SDS011;2026;51.002;13.668;2024-03-08T06:27:13;41.10;;;21.17;;
4023;SDS011;2026;51.002;13.668;2024-03-08T06:32:16;42.00;;;21.43;;
4023;SDS011;2026;51.002;13.668;2024-03-08T06:37:20;42.57;;;23.20;;
4023;SDS011;2026;51.002;13.668;2024-03-08T06:42:24;41.50;;;21.93;;
4023;SDS011;2026;51.002;13.668;2024-03-08T06:47:27;46.83;;;23.30;;
4023;SDS011;2026;51.002;13.668;2024-03-08T06:52:30;45.97;;;23.53;;
4023;SDS011;2026;51.002;13.668;2024-03-08T06:57:35;43.40;;;21.47;;
4023;SDS011;2026;51.002;13.668;2024-03-08T07:02:40;46.57;;;23.90;;
4023;SDS011;2026;51.002;13.668;2024-03-08T07:07:43;46.20;;;22.43;;
4023;SDS011;2026;51.002;13.668;2024-03-08T07:12:47;45.20;;;24.50;;
4023;SDS011;2026;51.002;13.668;2024-03-08T07:17:50;45.30;;;23.87;;
4023;SDS011;2026;51.002;13.668;2024-03-08T07:22:54;46.00;;;25.53;;
4023;SDS011;2026;51.002;13.668;2024-03-08T07:27:58;47.27;;;24.23;;
4023;SDS011;2026;51.002;13.668;2024-03-08T07:33:02;48.67;;;27.30;;
4023;SDS011;2026;51.002;13.668;2024-03-08T07:38:05;51.87;;;25.33;;
4023;SDS011;2026;51.002;13.668;2024-03-08T07:43:10;42.87;;;24.80;;
4023;SDS011;2026;51.002;13.668;2024-03-08T07:48:13;49.17;;;25.73;;
4023;SDS011;2026;51.002;13.668;2024-03-08T07:53:18;53.67;;;26.90;;
4023;SDS011;2026;51.002;13.668;2024-03-08T07:58:22;45.20;;;24.50;;
4023;SDS011;2026;51.002;13.668;2024-03-08T08:03:25;46.60;;;24.10;;
4023;SDS011;2026;51.002;13.668;2024-03-08T08:08:28;44.37;;;24.93;;
4023;SDS011;2026;51.002;13.668;2024-03-08T08:13:35;41.83;;;23.87;;
4023;SDS011;2026;51.002;13.668;2024-03-08T08:18:38;35.73;;;19.57;;
4023;SDS011;2026;51.002;13.668;2024-03-08T08:23:41;34.77;;;21.07;;
4023;SDS011;2026;51.002;13.668;2024-03-08T08:28:45;39.13;;;21.80;;
4023;SDS011;2026;51.002;13.668;2024-03-08T08:33:48;41.80;;;23.20;;
4023;SDS011;2026;51.002;13.668;2024-03-08T08:38:51;41.73;;;23.53;;
4023;SDS011;2026;51.002;13.668;2024-03-08T08:43:56;38.97;;;22.33;;
4023;SDS011;2026;51.002;13.668;2024-03-08T08:49:16;40.70;;;22.47;;
4023;SDS011;2026;51.002;13.668;2024-03-08T08:54:22;37.17;;;22.13;;
4023;SDS011;2026;51.002;13.668;2024-03-08T08:59:27;41.70;;;22.10;;
4023;SDS011;2026;51.002;13.668;2024-03-08T09:04:31;43.03;;;21.90;;
4023;SDS011;2026;51.002;13.668;2024-03-08T09:09:37;35.57;;;21.23;;
4023;SDS011;2026;51.002;13.668;2024-03-08T09:14:47;46.03;;;23.20;;
4023;SDS011;2026;51.002;13.668;2024-03-08T09:19:50;39.50;;;22.27;;
4023;SDS011;2026;51.002;13.668;2024-03-08T09:24:53;39.67;;;22.20;;
4023;SDS011;2026;51.002;13.668;2024-03-08T09:29:58;39.57;;;22.57;;
4023;SDS011;2026;51.002;13.668;2024-03-08T09:35:01;38.67;;;19.80;;
4023;SDS011;2026;51.002;13.668;2024-03-08T09:40:05;37.27;;;21.87;;
4023;SDS011;2026;51.002;13.668;2024-03-08T09:45:13;36.80;;;20.73;;
4023;SDS011;2026;51.002;13.668;2024-03-08T09:50:17;35.23;;;20.43;;
4023;SDS011;2026;51.002;13.668;2024-03-08T09:55:20;36.87;;;21.17;;
4023;SDS011;2026;51.002;13.668;2024-03-08T10:00:26;40.13;;;22.73;;
4023;SDS011;2026;51.002;13.668;2024-03-08T10:05:29;32.30;;;18.77;;
4023;SDS011;2026;51.002;13.668;2024-03-08T10:10:34;36.60;;;21.87;;
4023;SDS011;2026;51.002;13.668;2024-03-08T10:15:38;37.13;;;21.33;;
4023;SDS011;2026;51.002;13.668;2024-03-08T10:20:42;37.80;;;20.40;;
4023;SDS011;2026;51.002;13.668;2024-03-08T10:25:45;33.23;;;20.33;;
4023;SDS011;2026;51.002;13.668;2024-03-08T10:30:49;33.80;;;19.80;;
4023;SDS011;2026;51.002;13.668;2024-03-08T10:35:53;34.43;;;19.33;;
4023;SDS011;2026;51.002;13.668;2024-03-08T10:40:57;31.93;;;18.47;;
4023;SDS011;2026;51.002;13.668;2024-03-08T10:46:06;31.00;;;19.03;;
4023;SDS011;2026;51.002;13.668;2024-03-08T10:51:19;28.37;;;17.27;;
4023;SDS011;2026;51.002;13.668;2024-03-08T10:56:23;32.57;;;17.80;;
4023;SDS011;2026;51.002;13.668;2024-03-08T11:01:30;29.80;;;17.47;;
4023;SDS011;2026;51.002;13.668;2024-03-08T11:06:41;37.07;;;18.93;;
4023;SDS011;2026;51.002;13.668;2024-03-08T11:11:46;32.37;;;18.67;;
4023;SDS011;2026;51.002;13.668;2024-03-08T11:16:51;32.57;;;18.57;;
4023;SDS011;2026;51.002;13.668;2024-03-08T11:21:57;37.10;;;19.83;;
4023;SDS011;2026;51.002;13.668;2024-03-08T11:27:03;31.23;;;19.57;;
4023;SDS011;2026;51.002;13.668;2024-03-08T11:32:10;37.57;;;19.20;;
4023;SDS011;2026;51.002;13.668;2024-03-08T11:37:15;31.33;;;18.07;;
4023;SDS011;2026;51.002;13.668;2024-03-08T11:42:20;30.93;;;17.63;;
4023;SDS011;2026;51.002;13.668;2024-03-08T11:47:25;27.90;;;17.03;;
4023;SDS011;2026;51.002;13.668;2024-03-08T11:52:28;34.13;;;17.87;;
4023;SDS011;2026;51.002;13.668;2024-03-08T11:57:31;32.97;;;18.27;;
4023;SDS011;2026;51.002;13.668;2024-03-08T12:02:35;25.83;;;15.23;;
4023;SDS011;2026;51.002;13.668;2024-03-08T12:07:40;29.67;;;17.80;;
4023;SDS011;2026;51.002;13.668;2024-03-08T12:12:43;29.23;;;16.97;;
4023;SDS011;2026;51.002;13.668;2024-03-08T12:17:50;26.73;;;16.10;;
4023;SDS011;2026;51.002;13.668;2024-03-08T12:22:54;29.73;;;16.57;;
4023;SDS011;2026;51.002;13.668;2024-03-08T12:28:06;25.13;;;16.00;;
4023;SDS011;2026;51.002;13.668;2024-03-08T12:33:13;30.27;;;17.33;;
4023;SDS011;2026;51.002;13.668;2024-03-08T12:38:16;61.43;;;35.73;;
4023;SDS011;2026;51.002;13.668;2024-03-08T12:43:19;31.33;;;18.30;;
4023;SDS011;2026;51.002;13.668;2024-03-08T12:48:24;23.43;;;14.67;;
4023;SDS011;2026;51.002;13.668;2024-03-08T12:53:27;24.27;;;14.57;;
4023;SDS011;2026;51.002;13.668;2024-03-08T12:58:30;22.73;;;13.73;;
4023;SDS011;2026;51.002;13.668;2024-03-08T13:03:35;24.37;;;14.60;;
4023;SDS011;2026;51.002;13.668;2024-03-08T13:08:38;22.50;;;14.40;;
4023;SDS011;2026;51.002;13.668;2024-03-08T13:13:41;46.77;;;23.43;;
4023;SDS011;2026;51.002;13.668;2024-03-08T13:18:45;23.93;;;13.50;;
4023;SDS011;2026;51.002;13.668;2024-03-08T13:23:54;23.57;;;14.23;;
4023;SDS011;2026;51.002;13.668;2024-03-08T13:28:57;23.90;;;14.10;;
4023;SDS011;2026;51.002;13.668;2024-03-08T13:34:02;20.60;;;13.70;;
4023;SDS011;2026;51.002;13.668;2024-03-08T13:39:06;22.83;;;13.23;;
4023;SDS011;2026;51.002;13.668;2024-03-08T13:44:16;20.80;;;12.03;;
4023;SDS011;2026;51.002;13.668;2024-03-08T13:49:21;19.17;;;12.20;;
4023;SDS011;2026;51.002;13.668;2024-03-08T13:54:24;19.67;;;11.73;;
4023;SDS011;2026;51.002;13.668;2024-03-08T13:59:28;17.30;;;11.10;;
4023;SDS011;2026;51.002;13.668;2024-03-08T14:04:32;16.17;;;9.70;;
4023;SDS011;2026;51.002;13.668;2024-03-08T14:09:36;18.87;;;9.97;;
4023;SDS011;2026;51.002;13.668;2024-03-08T14:14:44;18.07;;;9.90;;
4023;SDS011;2026;51.002;13.668;2024-03-08T14:19:48;17.53;;;10.70;;
4023;SDS011;2026;51.002;13.668;2024-03-08T14:24:51;14.30;;;9.43;;
4023;SDS011;2026;51.002;13.668;2024-03-08T14:29:57;12.90;;;8.73;;
4023;SDS011;2026;51.002;13.668;2024-03-08T14:35:02;13.43;;;8.67;;
4023;SDS011;2026;51.002;13.668;2024-03-08T14:40:06;13.63;;;8.47;;
4023;SDS011;2026;51.002;13.668;2024-03-08T14:45:10;14.80;;;8.20;;
4023;SDS011;2026;51.002;13.668;2024-03-08T14:50:15;15.10;;;8.40;;
4023;SDS011;2026;51.002;13.668;2024-03-08T14:55:18;11.27;;;7.90;;
4023;SDS011;2026;51.002;13.668;2024-03-08T15:00:23;15.30;;;8.30;;
4023;SDS011;2026;51.002;13.668;2024-03-08T15:05:36;14.60;;;9.67;;
4023;SDS011;2026;51.002;13.668;2024-03-08T15:10:43;16.87;;;9.10;;
4023;SDS011;2026;51.002;13.668;2024-03-08T15:15:46;12.20;;;7.83;;
4023;SDS011;2026;51.002;13.668;2024-03-08T15:20:57;13.03;;;9.03;;
4023;SDS011;2026;51.002;13.668;2024-03-08T15:26:00;12.73;;;8.47;;
4023;SDS011;2026;51.002;13.668;2024-03-08T15:31:04;13.47;;;8.90;;
4023;SDS011;2026;51.002;13.668;2024-03-08T15:36:09;12.30;;;8.20;;
4023;SDS011;2026;51.002;13.668;2024-03-08T15:41:13;13.27;;;8.97;;
4023;SDS011;2026;51.002;13.668;2024-03-08T15:46:16;13.13;;;8.93;;
4023;SDS011;2026;51.002;13.668;2024-03-08T15:51:21;14.30;;;9.47;;
4023;SDS011;2026;51.002;13.668;2024-03-08T15:56:24;17.07;;;10.80;;
4023;SDS011;2026;51.002;13.668;2024-03-08T16:01:28;16.90;;;10.87;;
4023;SDS011;2026;51.002;13.668;2024-03-08T16:06:34;17.87;;;11.40;;
4023;SDS011;2026;51.002;13.668;2024-03-08T16:11:39;20.03;;;12.10;;
4023;SDS011;2026;51.002;13.668;2024-03-08T16:16:42;16.20;;;11.03;;
4023;SDS011;2026;51.002;13.668;2024-03-08T16:21:46;16.57;;;11.73;;
4023;SDS011;2026;51.002;13.668;2024-03-08T16:26:50;18.30;;;11.93;;
4023;SDS011;2026;51.002;13.668;2024-03-08T16:31:53;23.23;;;14.97;;
4023;SDS011;2026;51.002;13.668;2024-03-08T16:36:58;23.30;;;14.50;;
4023;SDS011;2026;51.002;13.668;2024-03-08T16:42:03;22.10;;;15.43;;
4023;SDS011;2026;51.002;13.668;2024-03-08T16:47:09;29.57;;;18.60;;
4023;SDS011;2026;51.002;13.668;2024-03-08T16:52:14;28.80;;;18.40;;
4023;SDS011;2026;51.002;13.668;2024-03-08T16:57:17;36.43;;;24.20;;
4023;SDS011;2026;51.002;13.668;2024-03-08T17:02:20;26.63;;;16.23;;
4023;SDS011;2026;51.002;13.668;2024-03-08T17:07:24;23.47;;;14.63;;
4023;SDS011;2026;51.002;13.668;2024-03-08T17:12:27;21.73;;;13.10;;
4023;SDS011;2026;51.002;13.668;2024-03-08T17:17:30;24.47;;;15.63;;
4023;SDS011;2026;51.002;13.668;2024-03-08T17:22:35;22.33;;;14.47;;
4023;SDS011;2026;51.002;13.668;2024-03-08T17:27:38;26.70;;;16.80;;
4023;SDS011;2026;51.002;13.668;2024-03-08T17:32:41;27.77;;;15.53;;
4023;SDS011;2026;51.002;13.668;2024-03-08T17:37:46;20.00;;;13.27;;
4023;SDS011;2026;51.002;13.668;2024-03-08T17:42:52;27.60;;;13.70;;
4023;SDS011;2026;51.002;13.668;2024-03-08T17:47:56;22.80;;;14.67;;
4023;SDS011;2026;51.002;13.668;2024-03-08T17:53:00;22.40;;;14.77;;
4023;SDS011;2026;51.002;13.668;2024-03-08T17:58:05;21.87;;;15.00;;
4023;SDS011;2026;51.002;13.668;2024-03-08T18:03:08;22.17;;;18.07;;
4023;SDS011;2026;51.002;13.668;2024-03-08T18:08:14;21.33;;;13.07;;
4023;SDS011;2026;51.002;13.668;2024-03-08T18:13:19;18.80;;;12.83;;
4023;SDS011;2026;51.002;13.668;2024-03-08T18:18:23;21.77;;;14.93;;
4023;SDS011;2026;51.002;13.668;2024-03-08T18:23:29;24.70;;;16.43;;
4023;SDS011;2026;51.002;13.668;2024-03-08T18:28:32;22.57;;;14.50;;
4023;SDS011;2026;51.002;13.668;2024-03-08T18:33:35;22.20;;;15.73;;
4023;SDS011;2026;51.002;13.668;2024-03-08T18:38:39;20.83;;;13.67;;
4023;SDS011;2026;51.002;13.668;2024-03-08T18:43:42;19.60;;;12.60;;
4023;SDS011;2026;51.002;13.668;2024-03-08T18:48:45;20.97;;;12.70;;
4023;SDS011;2026;51.002;13.668;2024-03-08T18:53:49;22.50;;;14.00;;
4023;SDS011;2026;51.002;13.668;2024-03-08T18:58:53;23.07;;;13.47;;
4023;SDS011;2026;51.002;13.668;2024-03-08T19:03:57;21.00;;;12.90;;
4023;SDS011;2026;51.002;13.668;2024-03-08T19:09:01;22.13;;;13.60;;
4023;SDS011;2026;51.002;13.668;2024-03-08T19:14:06;22.30;;;13.23;;
4023;SDS011;2026;51.002;13.668;2024-03-08T19:19:13;19.50;;;12.73;;
4023;SDS011;2026;51.002;13.668;2024-03-08T19:24:17;21.10;;;12.97;;
4023;SDS011;2026;51.002;13.668;2024-03-08T19:29:20;20.10;;;12.90;;
4023;SDS011;2026;51.002;13.668;2024-03-08T19:34:26;18.43;;;11.50;;
4023;SDS011;2026;51.002;13.668;2024-03-08T19:39:30;19.13;;;11.60;;
4023;SDS011;2026;51.002;13.668;2024-03-08T19:44:33;37.47;;;20.53;;
4023;SDS011;2026;51.002;13.668;2024-03-08T19:49:37;17.90;;;11.13;;
4023;SDS011;2026;51.002;13.668;2024-03-08T19:54:43;21.70;;;13.67;;
4023;SDS011;2026;51.002;13.668;2024-03-08T19:59:46;25.17;;;15.83;;
4023;SDS011;2026;51.002;13.668;2024-03-08T20:04:49;19.73;;;12.93;;
4023;SDS011;2026;51.002;13.668;2024-03-08T20:09:53;18.80;;;11.93;;
4023;SDS011;2026;51.002;13.668;2024-03-08T20:14:57;17.40;;;11.77;;
4023;SDS011;2026;51.002;13.668;2024-03-08T20:20:00;21.90;;;12.07;;
4023;SDS011;2026;51.002;13.668;2024-03-08T20:25:06;19.53;;;12.07;;
4023;SDS011;2026;51.002;13.668;2024-03-08T20:30:14;19.00;;;11.73;;
4023;SDS011;2026;51.002;13.668;2024-03-08T20:35:23;22.50;;;11.60;;
4023;SDS011;2026;51.002;13.668;2024-03-08T20:40:29;21.57;;;12.30;;
4023;SDS011;2026;51.002;13.668;2024-03-08T20:45:38;21.10;;;12.50;;
4023;SDS011;2026;51.002;13.668;2024-03-08T20:50:41;24.27;;;12.83;;
4023;SDS011;2026;51.002;13.668;2024-03-08T20:55:46;23.20;;;12.20;;
4023;SDS011;2026;51.002;13.668;2024-03-08T21:00:51;23.10;;;13.93;;
4023;SDS011;2026;51.002;13.668;2024-03-08T21:05:57;23.60;;;12.70;;
4023;SDS011;2026;51.002;13.668;2024-03-08T21:11:02;27.57;;;13.70;;
4023;SDS011;2026;51.002;13.668;2024-03-08T21:16:06;26.73;;;14.17;;
4023;SDS011;2026;51.002;13.668;2024-03-08T21:21:10;24.57;;;13.77;;
4023;SDS011;2026;51.002;13.668;2024-03-08T21:26:15;22.77;;;12.80;;
4023;SDS011;2026;51.002;13.668;2024-03-08T21:31:19;25.60;;;13.50;;
4023;SDS011;2026;51.002;13.668;2024-03-08T21:36:25;23.50;;;12.93;;
4023;SDS011;2026;51.002;13.668;2024-03-08T21:41:30;23.23;;;13.73;;
4023;SDS011;2026;51.002;13.668;2024-03-08T21:46:34;23.70;;;13.90;;
4023;SDS011;2026;51.002;13.668;2024-03-08T21:51:37;23.07;;;13.63;;
4023;SDS011;2026;51.002;13.668;2024-03-08T21:56:49;24.20;;;13.50;;
4023;SDS011;2026;51.002;13.668;2024-03-08T22:01:52;23.80;;;13.97;;
4023;SDS011;2026;51.002;13.668;2024-03-08T22:06:55;27.70;;;14.90;;
4023;SDS011;2026;51.002;13.668;2024-03-08T22:11:59;27.97;;;14.37;;
4023;SDS011;2026;51.002;13.668;2024-03-08T22:17:05;24.80;;;12.70;;
4023;SDS011;2026;51.002;13.668;2024-03-08T22:22:09;25.73;;;13.37;;
4023;SDS011;2026;51.002;13.668;2024-03-08T22:27:13;23.90;;;13.80;;
4023;SDS011;2026;51.002;13.668;2024-03-08T22:32:16;30.10;;;15.33;;
4023;SDS011;2026;51.002;13.668;2024-03-08T22:37:19;33.40;;;19.03;;
4023;SDS011;2026;51.002;13.668;2024-03-08T22:42:26;27.67;;;14.23;;
4023;SDS011;2026;51.002;13.668;2024-03-08T22:47:29;26.93;;;14.27;;
4023;SDS011;2026;51.002;13.668;2024-03-08T22:52:34;27.43;;;13.97;;
4023;SDS011;2026;51.002;13.668;2024-03-08T22:57:40;27.43;;;14.03;;
4023;SDS011;2026;51.002;13.668;2024-03-08T23:02:44;27.80;;;12.90;;
4023;SDS011;2026;51.002;13.668;2024-03-08T23:07:47;22.83;;;12.87;;
4023;SDS011;2026;51.002;13.668;2024-03-08T23:12:52;25.60;;;15.10;;
4023;SDS011;2026;51.002;13.668;2024-03-08T23:17:55;25.63;;;13.93;;
4023;SDS011;2026;51.002;13.668;2024-03-08T23:22:58;22.50;;;14.00;;
4023;SDS011;2026;51.002;13.668;2024-03-08T23:28:07;30.23;;;14.80;;
4023;SDS011;2026;51.002;13.668;2024-03-08T23:33:14;20.13;;;11.63;;
4023;SDS011;2026;51.002;13.668;2024-03-08T23:38:17;26.03;;;13.20;;
4023;SDS011;2026;51.002;13.668;2024-03-08T23:43:22;22.90;;;13.10;;
4023;SDS011;2026;51.002;13.668;2024-03-08T23:48:26;23.53;;;13.00;;
4023;SDS011;2026;51.002;13.668;2024-03-08T23:53:30;21.30;;;12.40;;
4023;SDS011;2026;51.002;13.668;2024-03-08T23:58:34;20.47;;;12.30;;
